sensor_id;sensor_type;location;lat;lon;timestamp;P1;durP1;ratioP1;P2;durP2;ratioP2
11228;SDS011;5671;47.936;8.716;2023-04-24T00:00:31;0.33;;;0.30;;
11228;SDS011;5671;47.936;8.716;2023-04-24T00:02:58;0.50;;;0.50;;
11228;SDS011;5671;47.936;8.716;2023-04-24T00:05:25;2.20;;;0.30;;
11228;SDS011;5671;47.936;8.716;2023-04-24T00:07:53;0.60;;;0.40;;
11228;SDS011;5671;47.936;8.716;2023-04-24T00:10:20;0.73;;;0.57;;
11228;SDS011;5671;47.936;8.716;2023-04-24T00:12:47;1.00;;;0.43;;
11228;SDS011;5671;47.936;8.716;2023-04-24T00:15:14;0.47;;;0.30;;
11228;SDS011;5671;47.936;8.716;2023-04-24T00:17:41;2.57;;;0.40;;
11228;SDS011;5671;47.936;8.716;2023-04-24T00:20:08;0.23;;;0.20;;
11228;SDS011;5671;47.936;8.716;2023-04-24T00:22:36;1.23;;;0.40;;
11228;SDS011;5671;47.936;8.716;2023-04-24T00:25:05;0.33;;;0.33;;
11228;SDS011;5671;47.936;8.716;2023-04-24T00:27:32;0.60;;;0.20;;
11228;SDS011;5671;47.936;8.716;2023-04-24T00:30:01;1.30;;;0.70;;
11228;SDS011;5671;47.936;8.716;2023-04-24T00:32:29;0.67;;;0.20;;
11228;SDS011;5671;47.936;8.716;2023-04-24T00:34:56;2.00;;;0.63;;
11228;SDS011;5671;47.936;8.716;2023-04-24T00:37:23;0.30;;;0.30;;
11228;SDS011;5671;47.936;8.716;2023-04-24T00:39:50;2.30;;;0.47;;
11228;SDS011;5671;47.936;8.716;2023-04-24T00:42:18;1.27;;;0.40;;
11228;SDS011;5671;47.936;8.716;2023-04-24T00:44:45;0.30;;;0.30;;
11228;SDS011;5671;47.936;8.716;2023-04-24T00:47:12;0.57;;;0.57;;
11228;SDS011;5671;47.936;8.716;2023-04-24T00:49:40;1.87;;;0.50;;
11228;SDS011;5671;47.936;8.716;2023-04-24T00:52:06;0.73;;;0.40;;
11228;SDS011;5671;47.936;8.716;2023-04-24T00:54:34;2.13;;;0.47;;
11228;SDS011;5671;47.936;8.716;2023-04-24T00:57:00;0.90;;;0.30;;
11228;SDS011;5671;47.936;8.716;2023-04-24T00:59:29;0.40;;;0.40;;
11228;SDS011;5671;47.936;8.716;2023-04-24T01:01:57;0.30;;;0.30;;
11228;SDS011;5671;47.936;8.716;2023-04-24T01:04:24;1.43;;;0.60;;
11228;SDS011;5671;47.936;8.716;2023-04-24T01:06:52;1.23;;;0.60;;
11228;SDS011;5671;47.936;8.716;2023-04-24T01:09:21;0.70;;;0.53;;
11228;SDS011;5671;47.936;8.716;2023-04-24T01:11:49;0.53;;;0.47;;
11228;SDS011;5671;47.936;8.716;2023-04-24T01:14:16;1.10;;;0.53;;
11228;SDS011;5671;47.936;8.716;2023-04-24T01:16:44;0.93;;;0.57;;
11228;SDS011;5671;47.936;8.716;2023-04-24T01:19:11;1.23;;;0.70;;
11228;SDS011;5671;47.936;8.716;2023-04-24T01:21:39;0.57;;;0.33;;
11228;SDS011;5671;47.936;8.716;2023-04-24T01:24:08;1.00;;;0.40;;
11228;SDS011;5671;47.936;8.716;2023-04-24T01:26:35;0.63;;;0.50;;
11228;SDS011;5671;47.936;8.716;2023-04-24T01:29:02;0.60;;;0.60;;
11228;SDS011;5671;47.936;8.716;2023-04-24T01:31:29;2.73;;;0.90;;
11228;SDS011;5671;47.936;8.716;2023-04-24T01:33:56;0.73;;;0.60;;
11228;SDS011;5671;47.936;8.716;2023-04-24T01:36:23;1.37;;;0.63;;
11228;SDS011;5671;47.936;8.716;2023-04-24T01:38:52;2.60;;;0.83;;
11228;SDS011;5671;47.936;8.716;2023-04-24T01:41:20;0.67;;;0.50;;
11228;SDS011;5671;47.936;8.716;2023-04-24T01:43:47;0.90;;;0.47;;
11228;SDS011;5671;47.936;8.716;2023-04-24T01:46:15;0.50;;;0.50;;
11228;SDS011;5671;47.936;8.716;2023-04-24T01:48:42;1.73;;;0.57;;
11228;SDS011;5671;47.936;8.716;2023-04-24T01:51:11;0.87;;;0.60;;
11228;SDS011;5671;47.936;8.716;2023-04-24T01:53:38;1.70;;;0.70;;
11228;SDS011;5671;47.936;8.716;2023-04-24T01:56:05;0.47;;;0.47;;
11228;SDS011;5671;47.936;8.716;2023-04-24T01:58:33;2.30;;;0.70;;
11228;SDS011;5671;47.936;8.716;2023-04-24T02:01:01;0.80;;;0.63;;
11228;SDS011;5671;47.936;8.716;2023-04-24T02:03:28;2.10;;;0.50;;
11228;SDS011;5671;47.936;8.716;2023-04-24T02:05:54;2.27;;;0.90;;
11228;SDS011;5671;47.936;8.716;2023-04-24T02:08:21;0.83;;;0.50;;
11228;SDS011;5671;47.936;8.716;2023-04-24T02:10:48;0.40;;;0.40;;
11228;SDS011;5671;47.936;8.716;2023-04-24T02:13:15;3.03;;;0.70;;
11228;SDS011;5671;47.936;8.716;2023-04-24T02:15:43;0.60;;;0.60;;
11228;SDS011;5671;47.936;8.716;2023-04-24T02:18:10;0.70;;;0.37;;
11228;SDS011;5671;47.936;8.716;2023-04-24T02:20:37;1.13;;;0.60;;
11228;SDS011;5671;47.936;8.716;2023-04-24T02:23:04;1.80;;;0.67;;
11228;SDS011;5671;47.936;8.716;2023-04-24T02:25:31;1.23;;;0.63;;
11228;SDS011;5671;47.936;8.716;2023-04-24T02:27:59;1.43;;;0.73;;
11228;SDS011;5671;47.936;8.716;2023-04-24T02:30:26;6.10;;;0.87;;
11228;SDS011;5671;47.936;8.716;2023-04-24T02:32:54;0.63;;;0.47;;
11228;SDS011;5671;47.936;8.716;2023-04-24T02:35:21;1.10;;;0.67;;
11228;SDS011;5671;47.936;8.716;2023-04-24T02:37:48;1.73;;;0.60;;
11228;SDS011;5671;47.936;8.716;2023-04-24T02:40:15;0.70;;;0.60;;
11228;SDS011;5671;47.936;8.716;2023-04-24T02:42:41;0.80;;;0.80;;
11228;SDS011;5671;47.936;8.716;2023-04-24T02:45:09;1.43;;;0.70;;
11228;SDS011;5671;47.936;8.716;2023-04-24T02:47:36;1.33;;;0.60;;
11228;SDS011;5671;47.936;8.716;2023-04-24T02:50:05;1.17;;;0.57;;
11228;SDS011;5671;47.936;8.716;2023-04-24T02:52:33;0.47;;;0.47;;
11228;SDS011;5671;47.936;8.716;2023-04-24T02:55:00;1.57;;;0.60;;
11228;SDS011;5671;47.936;8.716;2023-04-24T02:57:26;1.90;;;0.93;;
11228;SDS011;5671;47.936;8.716;2023-04-24T02:59:53;1.20;;;0.60;;
11228;SDS011;5671;47.936;8.716;2023-04-24T03:02:20;1.33;;;0.50;;
11228;SDS011;5671;47.936;8.716;2023-04-24T03:04:47;1.87;;;0.73;;
11228;SDS011;5671;47.936;8.716;2023-04-24T03:07:15;2.00;;;0.53;;
11228;SDS011;5671;47.936;8.716;2023-04-24T03:09:42;1.60;;;0.80;;
11228;SDS011;5671;47.936;8.716;2023-04-24T03:12:09;0.97;;;0.67;;
11228;SDS011;5671;47.936;8.716;2023-04-24T03:14:35;0.83;;;0.70;;
11228;SDS011;5671;47.936;8.716;2023-04-24T03:17:02;3.10;;;0.60;;
11228;SDS011;5671;47.936;8.716;2023-04-24T03:19:29;0.67;;;0.67;;
11228;SDS011;5671;47.936;8.716;2023-04-24T03:21:56;0.60;;;0.57;;
11228;SDS011;5671;47.936;8.716;2023-04-24T03:24:24;1.03;;;0.60;;
11228;SDS011;5671;47.936;8.716;2023-04-24T03:26:52;1.03;;;0.40;;
11228;SDS011;5671;47.936;8.716;2023-04-24T03:29:21;0.30;;;0.30;;
11228;SDS011;5671;47.936;8.716;2023-04-24T03:31:48;1.70;;;0.50;;
11228;SDS011;5671;47.936;8.716;2023-04-24T03:34:15;0.37;;;0.37;;
11228;SDS011;5671;47.936;8.716;2023-04-24T03:36:42;2.40;;;0.67;;
11228;SDS011;5671;47.936;8.716;2023-04-24T03:39:09;1.07;;;0.70;;
11228;SDS011;5671;47.936;8.716;2023-04-24T03:41:37;1.00;;;0.80;;
11228;SDS011;5671;47.936;8.716;2023-04-24T03:44:04;2.17;;;0.50;;
11228;SDS011;5671;47.936;8.716;2023-04-24T03:46:31;1.87;;;0.60;;
11228;SDS011;5671;47.936;8.716;2023-04-24T03:48:58;1.17;;;0.80;;
11228;SDS011;5671;47.936;8.716;2023-04-24T03:51:24;1.10;;;0.70;;
11228;SDS011;5671;47.936;8.716;2023-04-24T03:53:52;0.53;;;0.53;;
11228;SDS011;5671;47.936;8.716;2023-04-24T03:56:19;0.13;;;0.13;;
11228;SDS011;5671;47.936;8.716;2023-04-24T03:58:48;0.40;;;0.40;;
11228;SDS011;5671;47.936;8.716;2023-04-24T04:01:14;0.40;;;0.30;;
11228;SDS011;5671;47.936;8.716;2023-04-24T04:03:42;0.30;;;0.30;;
11228;SDS011;5671;47.936;8.716;2023-04-24T04:06:08;0.27;;;0.27;;
11228;SDS011;5671;47.936;8.716;2023-04-24T04:08:38;0.83;;;0.27;;
11228;SDS011;5671;47.936;8.716;2023-04-24T04:11:04;0.93;;;0.30;;
11228;SDS011;5671;47.936;8.716;2023-04-24T04:13:31;0.40;;;0.37;;
11228;SDS011;5671;47.936;8.716;2023-04-24T04:15:59;1.33;;;0.40;;
11228;SDS011;5671;47.936;8.716;2023-04-24T04:18:26;0.50;;;0.50;;
11228;SDS011;5671;47.936;8.716;2023-04-24T04:20:53;0.73;;;0.50;;
11228;SDS011;5671;47.936;8.716;2023-04-24T04:23:20;0.47;;;0.43;;
11228;SDS011;5671;47.936;8.716;2023-04-24T04:25:46;1.57;;;0.57;;
11228;SDS011;5671;47.936;8.716;2023-04-24T04:28:15;0.93;;;0.40;;
11228;SDS011;5671;47.936;8.716;2023-04-24T04:30:44;0.77;;;0.30;;
11228;SDS011;5671;47.936;8.716;2023-04-24T04:33:13;0.30;;;0.30;;
11228;SDS011;5671;47.936;8.716;2023-04-24T04:35:41;1.20;;;0.70;;
11228;SDS011;5671;47.936;8.716;2023-04-24T04:38:08;0.83;;;0.30;;
11228;SDS011;5671;47.936;8.716;2023-04-24T04:40:35;0.93;;;0.43;;
11228;SDS011;5671;47.936;8.716;2023-04-24T04:43:02;0.40;;;0.40;;
11228;SDS011;5671;47.936;8.716;2023-04-24T04:45:29;1.13;;;0.60;;
11228;SDS011;5671;47.936;8.716;2023-04-24T04:47:57;4.50;;;0.53;;
11228;SDS011;5671;47.936;8.716;2023-04-24T04:50:27;0.30;;;0.30;;
11228;SDS011;5671;47.936;8.716;2023-04-24T04:52:54;2.03;;;1.50;;
11228;SDS011;5671;47.936;8.716;2023-04-24T04:55:20;0.67;;;0.67;;
11228;SDS011;5671;47.936;8.716;2023-04-24T04:57:47;1.10;;;0.50;;
11228;SDS011;5671;47.936;8.716;2023-04-24T05:00:14;1.30;;;0.57;;
11228;SDS011;5671;47.936;8.716;2023-04-24T05:02:41;0.63;;;0.53;;
11228;SDS011;5671;47.936;8.716;2023-04-24T05:05:08;0.30;;;0.30;;
11228;SDS011;5671;47.936;8.716;2023-04-24T05:07:37;0.97;;;0.30;;
11228;SDS011;5671;47.936;8.716;2023-04-24T05:10:04;0.97;;;0.30;;
11228;SDS011;5671;47.936;8.716;2023-04-24T05:12:32;0.50;;;0.27;;
11228;SDS011;5671;47.936;8.716;2023-04-24T05:14:58;2.53;;;0.53;;
11228;SDS011;5671;47.936;8.716;2023-04-24T05:17:25;0.27;;;0.20;;
11228;SDS011;5671;47.936;8.716;2023-04-24T05:19:52;0.20;;;0.20;;
11228;SDS011;5671;47.936;8.716;2023-04-24T05:22:19;0.83;;;0.43;;
11228;SDS011;5671;47.936;8.716;2023-04-24T05:24:48;2.20;;;0.40;;
11228;SDS011;5671;47.936;8.716;2023-04-24T05:27:15;0.40;;;0.37;;
11228;SDS011;5671;47.936;8.716;2023-04-24T05:29:41;1.53;;;0.63;;
11228;SDS011;5671;47.936;8.716;2023-04-24T05:32:08;3.10;;;0.43;;
11228;SDS011;5671;47.936;8.716;2023-04-24T05:34:35;0.40;;;0.30;;
11228;SDS011;5671;47.936;8.716;2023-04-24T05:37:02;1.27;;;0.50;;
11228;SDS011;5671;47.936;8.716;2023-04-24T05:39:33;0.83;;;0.70;;
11228;SDS011;5671;47.936;8.716;2023-04-24T05:42:01;0.63;;;0.60;;
11228;SDS011;5671;47.936;8.716;2023-04-24T05:44:29;0.60;;;0.50;;
11228;SDS011;5671;47.936;8.716;2023-04-24T05:46:56;1.07;;;0.50;;
11228;SDS011;5671;47.936;8.716;2023-04-24T05:49:23;1.10;;;0.37;;
11228;SDS011;5671;47.936;8.716;2023-04-24T05:51:50;0.80;;;0.80;;
11228;SDS011;5671;47.936;8.716;2023-04-24T05:54:16;1.87;;;0.70;;
11228;SDS011;5671;47.936;8.716;2023-04-24T05:56:43;0.83;;;0.37;;
11228;SDS011;5671;47.936;8.716;2023-04-24T05:59:11;0.53;;;0.50;;
11228;SDS011;5671;47.936;8.716;2023-04-24T06:01:38;1.00;;;0.60;;
11228;SDS011;5671;47.936;8.716;2023-04-24T06:04:05;1.13;;;0.60;;
11228;SDS011;5671;47.936;8.716;2023-04-24T06:06:32;0.60;;;0.60;;
11228;SDS011;5671;47.936;8.716;2023-04-24T06:09:00;1.03;;;0.63;;
11228;SDS011;5671;47.936;8.716;2023-04-24T06:11:27;2.10;;;0.97;;
11228;SDS011;5671;47.936;8.716;2023-04-24T06:13:54;0.90;;;0.70;;
11228;SDS011;5671;47.936;8.716;2023-04-24T06:16:22;1.40;;;1.10;;
11228;SDS011;5671;47.936;8.716;2023-04-24T06:18:49;1.70;;;0.80;;
11228;SDS011;5671;47.936;8.716;2023-04-24T06:21:16;0.57;;;0.57;;
11228;SDS011;5671;47.936;8.716;2023-04-24T06:23:43;1.60;;;0.67;;
11228;SDS011;5671;47.936;8.716;2023-04-24T06:26:11;0.50;;;0.50;;
11228;SDS011;5671;47.936;8.716;2023-04-24T06:28:38;2.10;;;0.63;;
11228;SDS011;5671;47.936;8.716;2023-04-24T06:31:05;0.70;;;0.70;;
11228;SDS011;5671;47.936;8.716;2023-04-24T06:33:33;0.63;;;0.63;;
11228;SDS011;5671;47.936;8.716;2023-04-24T06:36:00;1.17;;;1.07;;
11228;SDS011;5671;47.936;8.716;2023-04-24T06:38:26;0.90;;;0.80;;
11228;SDS011;5671;47.936;8.716;2023-04-24T06:40:54;1.90;;;1.00;;
11228;SDS011;5671;47.936;8.716;2023-04-24T06:43:24;2.00;;;0.90;;
11228;SDS011;5671;47.936;8.716;2023-04-24T06:45:51;3.53;;;0.87;;
11228;SDS011;5671;47.936;8.716;2023-04-24T06:48:18;0.80;;;0.80;;
11228;SDS011;5671;47.936;8.716;2023-04-24T06:50:46;1.27;;;0.80;;
11228;SDS011;5671;47.936;8.716;2023-04-24T06:53:13;0.90;;;0.90;;
11228;SDS011;5671;47.936;8.716;2023-04-24T06:55:39;0.77;;;0.60;;
11228;SDS011;5671;47.936;8.716;2023-04-24T06:58:08;1.13;;;0.80;;
11228;SDS011;5671;47.936;8.716;2023-04-24T07:00:35;1.30;;;1.10;;
11228;SDS011;5671;47.936;8.716;2023-04-24T07:03:02;2.57;;;1.83;;
11228;SDS011;5671;47.936;8.716;2023-04-24T07:05:30;3.03;;;1.63;;
11228;SDS011;5671;47.936;8.716;2023-04-24T07:08:00;1.33;;;1.00;;
11228;SDS011;5671;47.936;8.716;2023-04-24T07:10:27;4.57;;;1.03;;
11228;SDS011;5671;47.936;8.716;2023-04-24T07:12:54;2.10;;;1.00;;
11228;SDS011;5671;47.936;8.716;2023-04-24T07:15:21;2.43;;;0.70;;
11228;SDS011;5671;47.936;8.716;2023-04-24T07:17:50;0.97;;;0.93;;
11228;SDS011;5671;47.936;8.716;2023-04-24T07:20:17;6.13;;;0.80;;
11228;SDS011;5671;47.936;8.716;2023-04-24T07:22:44;2.40;;;0.87;;
11228;SDS011;5671;47.936;8.716;2023-04-24T07:25:12;1.50;;;0.87;;
11228;SDS011;5671;47.936;8.716;2023-04-24T07:27:39;2.70;;;0.90;;
11228;SDS011;5671;47.936;8.716;2023-04-24T07:30:06;2.00;;;1.00;;
11228;SDS011;5671;47.936;8.716;2023-04-24T07:32:33;2.40;;;0.90;;
11228;SDS011;5671;47.936;8.716;2023-04-24T07:35:01;0.70;;;0.70;;
11228;SDS011;5671;47.936;8.716;2023-04-24T07:37:28;2.17;;;1.10;;
11228;SDS011;5671;47.936;8.716;2023-04-24T07:39:55;1.93;;;0.70;;
11228;SDS011;5671;47.936;8.716;2023-04-24T07:42:23;2.03;;;0.80;;
11228;SDS011;5671;47.936;8.716;2023-04-24T07:44:50;0.87;;;0.87;;
11228;SDS011;5671;47.936;8.716;2023-04-24T07:47:17;0.73;;;0.70;;
11228;SDS011;5671;47.936;8.716;2023-04-24T07:49:43;2.63;;;0.70;;
11228;SDS011;5671;47.936;8.716;2023-04-24T07:52:10;3.17;;;1.10;;
11228;SDS011;5671;47.936;8.716;2023-04-24T07:54:37;1.10;;;0.90;;
11228;SDS011;5671;47.936;8.716;2023-04-24T07:57:04;1.17;;;0.97;;
11228;SDS011;5671;47.936;8.716;2023-04-24T07:59:33;2.30;;;0.90;;
11228;SDS011;5671;47.936;8.716;2023-04-24T08:02:00;1.13;;;0.90;;
11228;SDS011;5671;47.936;8.716;2023-04-24T08:04:27;1.97;;;0.73;;
11228;SDS011;5671;47.936;8.716;2023-04-24T08:06:54;2.57;;;0.83;;
11228;SDS011;5671;47.936;8.716;2023-04-24T08:09:20;2.40;;;1.20;;
11228;SDS011;5671;47.936;8.716;2023-04-24T08:11:47;4.00;;;2.67;;
11228;SDS011;5671;47.936;8.716;2023-04-24T08:14:14;2.17;;;0.83;;
11228;SDS011;5671;47.936;8.716;2023-04-24T08:16:42;4.63;;;2.13;;
11228;SDS011;5671;47.936;8.716;2023-04-24T08:19:09;4.10;;;1.70;;
11228;SDS011;5671;47.936;8.716;2023-04-24T08:21:36;2.37;;;1.00;;
11228;SDS011;5671;47.936;8.716;2023-04-24T08:24:03;2.50;;;1.17;;
11228;SDS011;5671;47.936;8.716;2023-04-24T08:26:32;3.40;;;1.50;;
11228;SDS011;5671;47.936;8.716;2023-04-24T08:28:59;1.47;;;0.93;;
11228;SDS011;5671;47.936;8.716;2023-04-24T08:31:26;1.40;;;0.90;;
11228;SDS011;5671;47.936;8.716;2023-04-24T08:33:54;2.03;;;1.00;;
11228;SDS011;5671;47.936;8.716;2023-04-24T08:36:21;3.23;;;1.83;;
11228;SDS011;5671;47.936;8.716;2023-04-24T08:38:48;3.63;;;2.03;;
11228;SDS011;5671;47.936;8.716;2023-04-24T08:41:15;3.33;;;1.70;;
11228;SDS011;5671;47.936;8.716;2023-04-24T08:43:44;1.63;;;1.10;;
11228;SDS011;5671;47.936;8.716;2023-04-24T08:46:12;1.80;;;1.40;;
11228;SDS011;5671;47.936;8.716;2023-04-24T08:48:41;2.07;;;1.00;;
11228;SDS011;5671;47.936;8.716;2023-04-24T08:51:10;1.60;;;0.90;;
11228;SDS011;5671;47.936;8.716;2023-04-24T08:53:37;2.63;;;1.30;;
11228;SDS011;5671;47.936;8.716;2023-04-24T08:56:04;1.03;;;0.70;;
11228;SDS011;5671;47.936;8.716;2023-04-24T08:58:32;1.93;;;1.10;;
11228;SDS011;5671;47.936;8.716;2023-04-24T09:00:59;2.40;;;1.10;;
11228;SDS011;5671;47.936;8.716;2023-04-24T09:03:27;1.57;;;0.90;;
11228;SDS011;5671;47.936;8.716;2023-04-24T09:05:54;3.73;;;1.50;;
11228;SDS011;5671;47.936;8.716;2023-04-24T09:08:24;2.27;;;0.80;;
11228;SDS011;5671;47.936;8.716;2023-04-24T09:10:51;1.47;;;1.10;;
11228;SDS011;5671;47.936;8.716;2023-04-24T09:13:18;1.50;;;1.03;;
11228;SDS011;5671;47.936;8.716;2023-04-24T09:15:46;1.87;;;0.90;;
11228;SDS011;5671;47.936;8.716;2023-04-24T09:18:13;2.67;;;0.90;;
11228;SDS011;5671;47.936;8.716;2023-04-24T09:23:26;2.70;;;1.10;;
11228;SDS011;5671;47.936;8.716;2023-04-24T09:25:54;1.43;;;1.10;;
11228;SDS011;5671;47.936;8.716;2023-04-24T09:28:24;2.30;;;1.10;;
11228;SDS011;5671;47.936;8.716;2023-04-24T09:31:01;3.23;;;0.93;;
11228;SDS011;5671;47.936;8.716;2023-04-24T09:33:29;1.93;;;0.70;;
11228;SDS011;5671;47.936;8.716;2023-04-24T09:35:56;1.87;;;1.00;;
11228;SDS011;5671;47.936;8.716;2023-04-24T09:38:31;2.17;;;0.87;;
11228;SDS011;5671;47.936;8.716;2023-04-24T09:40:59;2.33;;;1.00;;
11228;SDS011;5671;47.936;8.716;2023-04-24T09:43:28;1.23;;;0.97;;
11228;SDS011;5671;47.936;8.716;2023-04-24T09:45:55;3.00;;;1.17;;
11228;SDS011;5671;47.936;8.716;2023-04-24T09:48:32;2.80;;;0.90;;
11228;SDS011;5671;47.936;8.716;2023-04-24T09:51:01;1.13;;;1.03;;
11228;SDS011;5671;47.936;8.716;2023-04-24T09:53:33;4.30;;;1.10;;
11228;SDS011;5671;47.936;8.716;2023-04-24T09:56:02;1.57;;;0.70;;
11228;SDS011;5671;47.936;8.716;2023-04-24T09:58:29;1.73;;;0.80;;
11228;SDS011;5671;47.936;8.716;2023-04-24T10:00:56;1.60;;;0.97;;
11228;SDS011;5671;47.936;8.716;2023-04-24T10:03:23;2.07;;;1.33;;
11228;SDS011;5671;47.936;8.716;2023-04-24T10:05:52;1.40;;;0.93;;
11228;SDS011;5671;47.936;8.716;2023-04-24T10:08:20;3.67;;;1.10;;
11228;SDS011;5671;47.936;8.716;2023-04-24T10:10:48;4.00;;;1.60;;
11228;SDS011;5671;47.936;8.716;2023-04-24T10:13:15;3.23;;;1.47;;
11228;SDS011;5671;47.936;8.716;2023-04-24T10:15:42;1.40;;;0.80;;
11228;SDS011;5671;47.936;8.716;2023-04-24T10:18:10;3.37;;;1.30;;
11228;SDS011;5671;47.936;8.716;2023-04-24T10:20:38;2.13;;;1.07;;
11228;SDS011;5671;47.936;8.716;2023-04-24T10:23:05;2.37;;;1.00;;
11228;SDS011;5671;47.936;8.716;2023-04-24T10:25:33;1.20;;;1.00;;
11228;SDS011;5671;47.936;8.716;2023-04-24T10:28:02;1.17;;;0.97;;
11228;SDS011;5671;47.936;8.716;2023-04-24T10:30:29;2.47;;;1.07;;
11228;SDS011;5671;47.936;8.716;2023-04-24T10:32:59;2.60;;;1.20;;
11228;SDS011;5671;47.936;8.716;2023-04-24T10:35:26;2.73;;;1.13;;
11228;SDS011;5671;47.936;8.716;2023-04-24T10:37:57;2.63;;;0.80;;
11228;SDS011;5671;47.936;8.716;2023-04-24T10:40:29;1.80;;;1.17;;
11228;SDS011;5671;47.936;8.716;2023-04-24T10:42:57;1.50;;;1.27;;
11228;SDS011;5671;47.936;8.716;2023-04-24T10:45:27;1.73;;;0.93;;
11228;SDS011;5671;47.936;8.716;2023-04-24T10:47:57;2.97;;;1.00;;
11228;SDS011;5671;47.936;8.716;2023-04-24T10:50:26;2.60;;;1.10;;
11228;SDS011;5671;47.936;8.716;2023-04-24T10:52:55;5.27;;;1.23;;
11228;SDS011;5671;47.936;8.716;2023-04-24T10:55:42;2.57;;;1.13;;
11228;SDS011;5671;47.936;8.716;2023-04-24T10:58:10;1.87;;;1.00;;
11228;SDS011;5671;47.936;8.716;2023-04-24T11:00:39;2.03;;;1.13;;
11228;SDS011;5671;47.936;8.716;2023-04-24T11:03:12;2.77;;;0.80;;
11228;SDS011;5671;47.936;8.716;2023-04-24T11:05:50;2.40;;;1.30;;
11228;SDS011;5671;47.936;8.716;2023-04-24T11:08:31;3.23;;;1.50;;
11228;SDS011;5671;47.936;8.716;2023-04-24T11:11:03;3.13;;;1.20;;
11228;SDS011;5671;47.936;8.716;2023-04-24T11:16:29;5.20;;;1.40;;
11228;SDS011;5671;47.936;8.716;2023-04-24T11:19:01;2.63;;;1.43;;
11228;SDS011;5671;47.936;8.716;2023-04-24T11:21:39;8.73;;;1.30;;
11228;SDS011;5671;47.936;8.716;2023-04-24T11:26:54;2.77;;;0.97;;
11228;SDS011;5671;47.936;8.716;2023-04-24T11:29:24;1.70;;;1.03;;
11228;SDS011;5671;47.936;8.716;2023-04-24T11:32:15;2.70;;;1.33;;
11228;SDS011;5671;47.936;8.716;2023-04-24T11:34:50;2.10;;;1.23;;
11228;SDS011;5671;47.936;8.716;2023-04-24T11:37:17;2.17;;;1.10;;
11228;SDS011;5671;47.936;8.716;2023-04-24T11:39:44;2.17;;;1.10;;
11228;SDS011;5671;47.936;8.716;2023-04-24T11:42:12;2.60;;;1.33;;
11228;SDS011;5671;47.936;8.716;2023-04-24T11:44:41;1.90;;;1.10;;
11228;SDS011;5671;47.936;8.716;2023-04-24T11:47:08;2.20;;;0.97;;
11228;SDS011;5671;47.936;8.716;2023-04-24T11:49:37;1.37;;;1.03;;
11228;SDS011;5671;47.936;8.716;2023-04-24T11:52:04;1.67;;;1.00;;
11228;SDS011;5671;47.936;8.716;2023-04-24T11:54:31;3.73;;;2.33;;
11228;SDS011;5671;47.936;8.716;2023-04-24T11:56:58;2.93;;;1.07;;
11228;SDS011;5671;47.936;8.716;2023-04-24T11:59:25;1.57;;;1.00;;
11228;SDS011;5671;47.936;8.716;2023-04-24T12:01:52;2.73;;;0.97;;
11228;SDS011;5671;47.936;8.716;2023-04-24T12:04:19;2.53;;;1.10;;
11228;SDS011;5671;47.936;8.716;2023-04-24T12:07:02;5.03;;;1.10;;
11228;SDS011;5671;47.936;8.716;2023-04-24T12:09:39;1.23;;;0.87;;
11228;SDS011;5671;47.936;8.716;2023-04-24T12:12:07;3.70;;;1.20;;
11228;SDS011;5671;47.936;8.716;2023-04-24T12:14:41;2.67;;;1.37;;
11228;SDS011;5671;47.936;8.716;2023-04-24T12:17:09;1.63;;;1.53;;
11228;SDS011;5671;47.936;8.716;2023-04-24T12:19:36;3.13;;;0.93;;
11228;SDS011;5671;47.936;8.716;2023-04-24T12:22:04;1.47;;;1.00;;
11228;SDS011;5671;47.936;8.716;2023-04-24T12:24:32;2.93;;;0.90;;
11228;SDS011;5671;47.936;8.716;2023-04-24T12:26:58;2.50;;;1.00;;
11228;SDS011;5671;47.936;8.716;2023-04-24T12:29:26;1.40;;;0.67;;
11228;SDS011;5671;47.936;8.716;2023-04-24T12:31:53;1.90;;;0.87;;
11228;SDS011;5671;47.936;8.716;2023-04-24T12:34:20;2.03;;;0.90;;
11228;SDS011;5671;47.936;8.716;2023-04-24T12:36:50;2.70;;;1.70;;
11228;SDS011;5671;47.936;8.716;2023-04-24T12:39:18;1.03;;;0.83;;
11228;SDS011;5671;47.936;8.716;2023-04-24T12:41:54;1.17;;;0.90;;
11228;SDS011;5671;47.936;8.716;2023-04-24T12:44:29;2.93;;;1.93;;
11228;SDS011;5671;47.936;8.716;2023-04-24T12:46:59;2.60;;;1.17;;
11228;SDS011;5671;47.936;8.716;2023-04-24T12:49:26;2.20;;;0.93;;
11228;SDS011;5671;47.936;8.716;2023-04-24T12:51:53;2.10;;;1.30;;
11228;SDS011;5671;47.936;8.716;2023-04-24T12:54:21;2.57;;;1.60;;
11228;SDS011;5671;47.936;8.716;2023-04-24T12:56:48;5.77;;;2.80;;
11228;SDS011;5671;47.936;8.716;2023-04-24T12:59:15;13.83;;;4.97;;
11228;SDS011;5671;47.936;8.716;2023-04-24T13:01:42;3.03;;;1.73;;
11228;SDS011;5671;47.936;8.716;2023-04-24T13:04:09;8.40;;;5.80;;
11228;SDS011;5671;47.936;8.716;2023-04-24T13:06:36;4.87;;;3.33;;
11228;SDS011;5671;47.936;8.716;2023-04-24T13:09:02;2.80;;;1.23;;
11228;SDS011;5671;47.936;8.716;2023-04-24T13:11:31;5.07;;;2.23;;
11228;SDS011;5671;47.936;8.716;2023-04-24T13:13:57;8.27;;;4.40;;
11228;SDS011;5671;47.936;8.716;2023-04-24T13:16:24;2.53;;;2.33;;
11228;SDS011;5671;47.936;8.716;2023-04-24T13:18:51;1.43;;;1.10;;
11228;SDS011;5671;47.936;8.716;2023-04-24T13:21:18;2.93;;;1.73;;
11228;SDS011;5671;47.936;8.716;2023-04-24T13:23:45;1.70;;;1.30;;
11228;SDS011;5671;47.936;8.716;2023-04-24T13:26:12;2.27;;;1.30;;
11228;SDS011;5671;47.936;8.716;2023-04-24T13:28:40;4.50;;;1.07;;
11228;SDS011;5671;47.936;8.716;2023-04-24T13:31:06;3.20;;;0.90;;
11228;SDS011;5671;47.936;8.716;2023-04-24T13:33:33;1.20;;;1.07;;
11228;SDS011;5671;47.936;8.716;2023-04-24T13:36:00;2.27;;;1.20;;
11228;SDS011;5671;47.936;8.716;2023-04-24T13:38:27;2.57;;;1.00;;
11228;SDS011;5671;47.936;8.716;2023-04-24T13:40:54;3.03;;;1.10;;
11228;SDS011;5671;47.936;8.716;2023-04-24T13:43:21;1.83;;;1.13;;
11228;SDS011;5671;47.936;8.716;2023-04-24T13:45:49;2.00;;;1.40;;
11228;SDS011;5671;47.936;8.716;2023-04-24T13:48:16;2.93;;;2.17;;
11228;SDS011;5671;47.936;8.716;2023-04-24T13:50:43;2.90;;;1.40;;
11228;SDS011;5671;47.936;8.716;2023-04-24T13:53:13;1.50;;;1.40;;
11228;SDS011;5671;47.936;8.716;2023-04-24T13:55:40;2.47;;;1.13;;
11228;SDS011;5671;47.936;8.716;2023-04-24T13:58:06;5.20;;;1.63;;
11228;SDS011;5671;47.936;8.716;2023-04-24T14:00:33;1.27;;;1.17;;
11228;SDS011;5671;47.936;8.716;2023-04-24T14:03:01;2.67;;;1.57;;
11228;SDS011;5671;47.936;8.716;2023-04-24T14:05:28;3.77;;;1.20;;
11228;SDS011;5671;47.936;8.716;2023-04-24T14:07:55;2.87;;;1.10;;
11228;SDS011;5671;47.936;8.716;2023-04-24T14:10:22;3.50;;;1.37;;
11228;SDS011;5671;47.936;8.716;2023-04-24T14:12:49;2.03;;;1.10;;
11228;SDS011;5671;47.936;8.716;2023-04-24T14:15:16;1.40;;;1.07;;
11228;SDS011;5671;47.936;8.716;2023-04-24T14:17:43;1.43;;;1.07;;
11228;SDS011;5671;47.936;8.716;2023-04-24T14:20:12;7.17;;;1.33;;
11228;SDS011;5671;47.936;8.716;2023-04-24T14:22:38;3.33;;;1.40;;
11228;SDS011;5671;47.936;8.716;2023-04-24T14:25:06;2.17;;;1.23;;
11228;SDS011;5671;47.936;8.716;2023-04-24T14:27:33;1.83;;;1.10;;
11228;SDS011;5671;47.936;8.716;2023-04-24T14:30:01;2.90;;;1.07;;
11228;SDS011;5671;47.936;8.716;2023-04-24T14:32:29;2.90;;;1.03;;
11228;SDS011;5671;47.936;8.716;2023-04-24T14:34:56;3.67;;;1.40;;
11228;SDS011;5671;47.936;8.716;2023-04-24T14:37:24;1.27;;;1.00;;
11228;SDS011;5671;47.936;8.716;2023-04-24T14:39:51;0.70;;;0.70;;
11228;SDS011;5671;47.936;8.716;2023-04-24T14:42:17;4.13;;;1.03;;
11228;SDS011;5671;47.936;8.716;2023-04-24T14:44:44;1.60;;;1.23;;
11228;SDS011;5671;47.936;8.716;2023-04-24T14:47:11;1.00;;;0.97;;
11228;SDS011;5671;47.936;8.716;2023-04-24T14:49:38;1.63;;;1.07;;
11228;SDS011;5671;47.936;8.716;2023-04-24T14:52:05;3.73;;;1.90;;
11228;SDS011;5671;47.936;8.716;2023-04-24T14:54:33;2.23;;;1.70;;
11228;SDS011;5671;47.936;8.716;2023-04-24T14:57:00;2.50;;;1.93;;
11228;SDS011;5671;47.936;8.716;2023-04-24T14:59:27;1.50;;;1.40;;
11228;SDS011;5671;47.936;8.716;2023-04-24T15:01:55;2.87;;;1.70;;
11228;SDS011;5671;47.936;8.716;2023-04-24T15:04:22;1.77;;;1.60;;
11228;SDS011;5671;47.936;8.716;2023-04-24T15:06:50;2.47;;;1.40;;
11228;SDS011;5671;47.936;8.716;2023-04-24T15:09:18;2.87;;;1.60;;
11228;SDS011;5671;47.936;8.716;2023-04-24T15:11:46;1.43;;;1.30;;